createdAt,value
2023-03-26T00:00:48.908Z,0.00
2023-03-26T00:01:49.031Z,0.00
2023-03-26T00:02:48.977Z,0.00
2023-03-26T00:03:49.054Z,0.00
2023-03-26T00:04:48.931Z,0.00
2023-03-26T00:05:49.201Z,0.00
2023-03-26T00:06:48.965Z,0.00
2023-03-26T00:07:48.938Z,0.00
2023-03-26T00:08:48.848Z,0.00
2023-03-26T00:09:48.961Z,0.00
2023-03-26T00:10:48.857Z,0.00
2023-03-26T00:11:48.903Z,0.00
2023-03-26T00:12:48.918Z,0.00
2023-03-26T00:13:48.802Z,0.00
2023-03-26T00:14:48.888Z,0.00
2023-03-26T00:15:48.797Z,0.00
2023-03-26T00:16:48.773Z,0.00
2023-03-26T00:17:48.830Z,0.00
2023-03-26T00:18:48.882Z,0.00
2023-03-26T00:19:48.748Z,0.00
2023-03-26T00:20:48.724Z,0.00
2023-03-26T00:21:48.893Z,0.00
2023-03-26T00:22:48.706Z,0.00
2023-03-26T00:23:48.749Z,0.00
2023-03-26T00:24:48.793Z,0.00
2023-03-26T00:25:49.557Z,0.00
2023-03-26T00:26:48.799Z,0.00
2023-03-26T00:27:48.676Z,0.00
2023-03-26T00:28:48.694Z,0.00
2023-03-26T00:29:48.657Z,0.00
2023-03-26T00:30:48.750Z,0.00
2023-03-26T00:31:48.709Z,0.00
2023-03-26T00:32:53.709Z,0.00
2023-03-26T00:33:48.757Z,0.00
2023-03-26T00:34:48.745Z,0.00
2023-03-26T00:35:48.639Z,0.00
2023-03-26T00:36:48.614Z,0.00
2023-03-26T00:37:48.727Z,0.00
2023-03-26T00:38:48.885Z,0.00
2023-03-26T00:39:48.823Z,0.00
2023-03-26T00:40:48.636Z,0.00
2023-03-26T00:41:48.548Z,0.00
2023-03-26T00:42:48.617Z,0.00
2023-03-26T00:43:48.528Z,0.00
2023-03-26T00:44:48.485Z,0.00
2023-03-26T00:45:48.524Z,0.00
2023-03-26T00:46:48.453Z,0.00
2023-03-26T00:47:48.695Z,0.00
2023-03-26T00:48:48.424Z,0.00
2023-03-26T00:49:48.551Z,0.00
2023-03-26T00:50:48.409Z,0.00
2023-03-26T00:51:48.601Z,0.00
2023-03-26T00:52:48.428Z,0.00
2023-03-26T00:53:48.622Z,0.00
2023-03-26T00:54:48.352Z,0.00
2023-03-26T00:55:48.382Z,0.00
2023-03-26T00:56:48.393Z,0.00
2023-03-26T00:57:48.390Z,0.00
2023-03-26T00:58:48.414Z,0.00
2023-03-26T00:59:48.306Z,0.00
2023-03-26T01:00:48.384Z,0.00
2023-03-26T01:01:48.321Z,0.00
2023-03-26T01:02:48.370Z,0.00
2023-03-26T01:04:01.251Z,0.00
2023-03-26T01:04:48.461Z,0.00
2023-03-26T01:05:48.266Z,0.00
2023-03-26T01:06:48.271Z,0.00
2023-03-26T01:07:48.275Z,0.00
2023-03-26T01:08:48.270Z,0.00
2023-03-26T01:09:48.511Z,0.00
2023-03-26T01:10:48.260Z,0.00
2023-03-26T01:11:48.363Z,0.00
2023-03-26T01:12:48.163Z,0.00
2023-03-26T01:13:48.233Z,0.00
2023-03-26T01:14:48.949Z,0.00
2023-03-26T01:15:48.185Z,0.00
2023-03-26T01:16:48.138Z,0.00
2023-03-26T01:17:48.144Z,0.00
2023-03-26T01:18:48.191Z,0.00
2023-03-26T01:19:48.145Z,0.00
2023-03-26T01:20:48.109Z,0.00
2023-03-26T01:21:48.168Z,0.00
2023-03-26T01:22:48.088Z,0.00
2023-03-26T01:23:48.056Z,0.00
2023-03-26T01:24:48.422Z,0.00
2023-03-26T01:25:48.102Z,0.00
2023-03-26T01:26:48.093Z,0.00
2023-03-26T01:27:48.038Z,0.00
2023-03-26T01:28:48.050Z,0.00
2023-03-26T01:29:48.023Z,0.00
2023-03-26T01:30:48.110Z,0.00
2023-03-26T01:31:47.989Z,0.00
2023-03-26T01:32:48.092Z,0.00
2023-03-26T01:33:48.016Z,0.00
2023-03-26T01:34:47.922Z,0.00
2023-03-26T01:35:48.126Z,0.00
2023-03-26T01:36:47.989Z,0.00
2023-03-26T01:37:47.945Z,0.00
2023-03-26T01:38:47.956Z,0.00
2023-03-26T01:39:47.899Z,0.00
2023-03-26T01:40:47.944Z,0.00
2023-03-26T01:41:47.961Z,0.00
2023-03-26T01:42:47.878Z,0.00
2023-03-26T01:43:47.881Z,0.00
2023-03-26T01:44:47.844Z,0.00
2023-03-26T01:45:47.816Z,0.00
2023-03-26T01:46:47.857Z,0.00
2023-03-26T01:47:47.849Z,0.00
2023-03-26T01:48:47.824Z,0.00
2023-03-26T01:49:47.823Z,0.00
2023-03-26T01:50:47.806Z,0.00
2023-03-26T01:51:47.842Z,0.00
2023-03-26T01:52:47.816Z,0.00
2023-03-26T01:53:47.774Z,0.00
2023-03-26T01:54:47.854Z,0.00
2023-03-26T01:55:47.751Z,0.00
2023-03-26T01:56:47.777Z,0.00
2023-03-26T01:57:47.702Z,0.00
2023-03-26T01:58:47.727Z,0.00
2023-03-26T01:59:47.731Z,0.00
2023-03-26T02:00:47.746Z,0.00
2023-03-26T02:01:47.718Z,0.00
2023-03-26T02:02:47.943Z,0.00
2023-03-26T02:03:47.695Z,0.00
2023-03-26T02:04:47.622Z,0.00
2023-03-26T02:05:47.616Z,0.00
2023-03-26T02:06:47.593Z,0.00
2023-03-26T02:07:47.711Z,0.00
2023-03-26T02:08:47.680Z,0.00
2023-03-26T02:09:47.606Z,0.00
2023-03-26T02:10:47.605Z,0.00
2023-03-26T02:11:47.663Z,0.00
2023-03-26T02:12:47.554Z,0.00
2023-03-26T02:13:47.528Z,0.00
2023-03-26T02:14:47.559Z,0.00
2023-03-26T02:15:47.577Z,0.00
2023-03-26T02:16:47.539Z,0.00
2023-03-26T02:17:47.552Z,0.00
2023-03-26T02:18:47.565Z,0.00
2023-03-26T02:19:47.491Z,0.00
2023-03-26T02:20:47.460Z,0.00
2023-03-26T02:21:47.437Z,0.00
2023-03-26T02:22:47.447Z,0.00
2023-03-26T02:23:47.405Z,0.00
2023-03-26T02:24:47.393Z,0.00
2023-03-26T02:25:47.443Z,0.00
2023-03-26T02:26:47.356Z,0.00
2023-03-26T02:27:47.372Z,0.00
2023-03-26T02:28:47.351Z,0.00
2023-03-26T02:29:47.325Z,0.00
2023-03-26T02:30:47.337Z,0.00
2023-03-26T02:31:47.357Z,0.00
2023-03-26T02:32:47.350Z,0.00
2023-03-26T02:33:47.438Z,0.00
2023-03-26T02:34:47.321Z,0.00
2023-03-26T02:35:47.295Z,0.00
2023-03-26T02:36:47.290Z,0.00
2023-03-26T02:37:47.313Z,0.00
2023-03-26T02:38:47.240Z,0.00
2023-03-26T02:39:47.251Z,0.00
2023-03-26T02:40:47.217Z,0.00
2023-03-26T02:41:47.210Z,0.00
2023-03-26T02:42:47.230Z,0.00
2023-03-26T02:43:47.217Z,0.00
2023-03-26T02:44:47.187Z,0.00
2023-03-26T02:45:47.216Z,0.00
2023-03-26T02:46:47.175Z,0.00
2023-03-26T02:47:47.165Z,0.00
2023-03-26T02:48:47.162Z,0.00
2023-03-26T02:49:47.115Z,0.00
2023-03-26T02:50:47.135Z,0.00
2023-03-26T02:51:47.128Z,0.00
2023-03-26T02:52:47.088Z,0.00
2023-03-26T02:53:47.045Z,0.00
2023-03-26T02:54:47.042Z,0.00
2023-03-26T02:55:47.075Z,0.00
2023-03-26T02:56:47.133Z,0.00
2023-03-26T02:57:47.065Z,0.00
2023-03-26T02:58:47.034Z,0.00
2023-03-26T02:59:46.999Z,0.00
2023-03-26T03:00:47.346Z,0.00
2023-03-26T03:01:47.005Z,0.00
2023-03-26T03:02:47.061Z,0.00
2023-03-26T03:03:47.109Z,0.00
2023-03-26T03:04:46.934Z,0.00
2023-03-26T03:05:46.956Z,0.00
2023-03-26T03:06:47.040Z,0.00
2023-03-26T03:07:46.908Z,0.00
2023-03-26T03:08:46.966Z,0.00
2023-03-26T03:09:46.932Z,0.00
2023-03-26T03:10:46.911Z,0.00
2023-03-26T03:11:46.866Z,0.00
2023-03-26T03:12:46.866Z,0.00
2023-03-26T03:13:47.121Z,0.00
2023-03-26T03:14:46.921Z,0.00
2023-03-26T03:15:46.829Z,0.00
2023-03-26T03:16:46.879Z,0.00
2023-03-26T03:17:46.869Z,0.00
2023-03-26T03:18:46.814Z,0.00
2023-03-26T03:19:46.837Z,0.00
2023-03-26T03:20:46.807Z,0.00
2023-03-26T03:21:46.869Z,0.00
2023-03-26T03:22:46.786Z,0.00
2023-03-26T03:23:46.780Z,0.00
2023-03-26T03:24:46.821Z,0.00
2023-03-26T03:25:46.733Z,0.00
2023-03-26T03:26:46.696Z,0.00
2023-03-26T03:27:46.789Z,0.00
2023-03-26T03:28:46.751Z,0.00
2023-03-26T03:29:46.803Z,0.00
2023-03-26T03:30:46.750Z,0.00
2023-03-26T03:31:46.765Z,0.00
2023-03-26T03:32:46.709Z,0.00
2023-03-26T03:33:46.711Z,0.00
2023-03-26T03:34:46.622Z,0.00
2023-03-26T03:35:46.663Z,0.00
2023-03-26T03:36:46.637Z,0.00
2023-03-26T03:37:46.644Z,0.00
2023-03-26T03:38:46.575Z,0.00
2023-03-26T03:39:46.615Z,0.00
2023-03-26T03:40:46.669Z,0.00
2023-03-26T03:41:46.622Z,0.00
2023-03-26T03:42:46.575Z,0.00
2023-03-26T03:43:46.547Z,0.00
2023-03-26T03:44:46.546Z,0.00
2023-03-26T03:45:46.620Z,0.00
2023-03-26T03:46:46.508Z,0.00
2023-03-26T03:47:46.517Z,0.00
2023-03-26T03:48:46.661Z,0.00
2023-03-26T03:49:46.548Z,0.00
2023-03-26T03:50:46.495Z,0.00
2023-03-26T03:51:46.495Z,0.00
2023-03-26T03:52:46.447Z,0.00
2023-03-26T03:53:46.438Z,0.00
2023-03-26T03:54:46.554Z,0.00
2023-03-26T03:55:46.456Z,0.00
2023-03-26T03:56:46.463Z,0.00
2023-03-26T03:57:46.396Z,0.00
2023-03-26T03:58:46.423Z,0.00
2023-03-26T03:59:47.464Z,0.00
2023-03-26T04:00:46.393Z,0.00
2023-03-26T04:01:46.368Z,0.00
2023-03-26T04:02:46.487Z,0.00
2023-03-26T04:03:46.841Z,0.00
2023-03-26T04:04:46.391Z,0.00
2023-03-26T04:05:46.360Z,0.00
2023-03-26T04:06:46.330Z,0.00
2023-03-26T04:07:46.381Z,0.00
2023-03-26T04:08:46.257Z,0.00
2023-03-26T04:09:46.269Z,0.00
2023-03-26T04:10:46.321Z,0.00
2023-03-26T04:11:46.238Z,0.00
2023-03-26T04:12:46.238Z,0.00
2023-03-26T04:13:46.300Z,0.00
2023-03-26T04:14:46.226Z,0.00
2023-03-26T04:15:46.245Z,0.00
2023-03-26T04:16:46.217Z,0.00
2023-03-26T04:17:46.191Z,0.00
2023-03-26T04:18:46.225Z,0.00
2023-03-26T04:19:46.149Z,0.00
2023-03-26T04:20:46.168Z,0.00
2023-03-26T04:21:46.152Z,0.00
2023-03-26T04:22:46.121Z,0.00
2023-03-26T04:23:46.136Z,0.00
2023-03-26T04:24:46.130Z,0.00
2023-03-26T04:25:46.103Z,0.00
2023-03-26T04:26:46.081Z,0.00
2023-03-26T04:27:46.097Z,0.00
2023-03-26T04:28:46.206Z,0.00
2023-03-26T04:29:46.058Z,0.00
2023-03-26T04:30:46.053Z,0.00
2023-03-26T04:31:46.126Z,0.00
2023-03-26T04:32:46.053Z,0.00
2023-03-26T04:33:46.064Z,0.00
2023-03-26T04:34:46.022Z,0.00
2023-03-26T04:35:46.164Z,0.00
2023-03-26T04:36:46.017Z,0.00
2023-03-26T04:37:46.133Z,0.00
2023-03-26T04:38:45.968Z,0.00
2023-03-26T04:39:45.973Z,0.00
2023-03-26T04:40:45.964Z,0.00
2023-03-26T04:41:45.951Z,0.00
2023-03-26T04:42:45.953Z,0.00
2023-03-26T04:43:45.906Z,0.00
2023-03-26T04:44:45.899Z,0.00
2023-03-26T04:45:45.962Z,0.00
2023-03-26T04:46:45.919Z,0.00
2023-03-26T04:47:45.889Z,0.00
2023-03-26T04:48:45.868Z,0.00
2023-03-26T04:49:45.883Z,0.00
2023-03-26T04:50:45.898Z,0.00
2023-03-26T04:51:45.830Z,0.00
2023-03-26T04:52:45.784Z,1.00
2023-03-26T04:53:45.807Z,0.00
2023-03-26T04:54:45.780Z,1.00
2023-03-26T04:55:45.793Z,1.00
2023-03-26T04:56:45.888Z,0.00
2023-03-26T04:57:45.756Z,0.00
2023-03-26T04:58:45.797Z,0.00
2023-03-26T04:59:45.840Z,0.00
2023-03-26T05:00:45.773Z,1.00
2023-03-26T05:01:45.968Z,1.00
2023-03-26T05:02:45.839Z,0.00
2023-03-26T05:03:45.997Z,0.00
2023-03-26T05:04:45.981Z,0.00
2023-03-26T05:05:45.754Z,5.00
2023-03-26T05:06:45.704Z,4.00
2023-03-26T05:07:45.738Z,1.00
2023-03-26T05:08:45.683Z,2.00
2023-03-26T05:09:45.649Z,6.00
2023-03-26T05:10:45.636Z,3.00
2023-03-26T05:11:45.646Z,4.00
2023-03-26T05:12:45.649Z,4.00
2023-03-26T05:13:45.670Z,4.00
2023-03-26T05:14:45.588Z,7.00
2023-03-26T05:15:45.557Z,5.00
2023-03-26T05:16:45.566Z,12.00
2023-03-26T05:17:45.537Z,11.00
2023-03-26T05:18:45.520Z,7.00
2023-03-26T05:19:45.503Z,10.00
2023-03-26T05:20:45.577Z,14.00
2023-03-26T05:21:45.456Z,18.00
2023-03-26T05:22:45.522Z,27.00
2023-03-26T05:23:45.459Z,33.00
2023-03-26T05:24:45.504Z,33.00
2023-03-26T05:25:45.481Z,33.00
2023-03-26T05:26:45.395Z,32.00
2023-03-26T05:27:45.438Z,36.00
2023-03-26T05:28:45.393Z,47.00
2023-03-26T05:29:45.409Z,54.00
2023-03-26T05:30:45.498Z,58.00
2023-03-26T05:31:45.414Z,62.00
2023-03-26T05:32:45.473Z,62.00
2023-03-26T05:33:45.472Z,70.00
2023-03-26T05:34:45.350Z,67.00
2023-03-26T05:35:45.369Z,64.00
2023-03-26T05:36:45.372Z,68.00
2023-03-26T05:37:45.341Z,77.00
2023-03-26T05:38:45.325Z,83.00
2023-03-26T05:39:45.370Z,91.00
2023-03-26T05:40:45.269Z,79.00
2023-03-26T05:41:45.297Z,118.00
2023-03-26T05:42:45.334Z,140.00
2023-03-26T05:43:45.268Z,148.00
2023-03-26T05:44:45.242Z,158.00
2023-03-26T05:45:45.365Z,152.00
2023-03-26T05:46:45.303Z,166.00
2023-03-26T05:47:45.272Z,156.00
2023-03-26T05:48:45.201Z,159.00
2023-03-26T05:49:45.216Z,171.00
2023-03-26T05:50:45.186Z,178.00
2023-03-26T05:51:45.226Z,171.00
2023-03-26T05:52:45.211Z,158.00
2023-03-26T05:53:45.141Z,159.00
2023-03-26T05:54:45.133Z,149.00
2023-03-26T05:55:45.122Z,131.00
2023-03-26T05:56:45.181Z,144.00
2023-03-26T05:57:45.149Z,166.00
2023-03-26T05:58:45.144Z,195.00
2023-03-26T05:59:45.138Z,203.00
2023-03-26T06:00:45.109Z,174.00
2023-03-26T06:01:45.161Z,175.00
2023-03-26T06:02:45.136Z,205.00
2023-03-26T06:03:45.250Z,223.00
2023-03-26T06:04:45.177Z,236.00
2023-03-26T06:05:45.144Z,254.00
2023-03-26T06:06:45.046Z,266.00
2023-03-26T06:07:45.171Z,288.00
2023-03-26T06:08:45.109Z,318.00
2023-03-26T06:09:45.056Z,328.00
2023-03-26T06:10:44.959Z,319.00
2023-03-26T06:11:44.982Z,304.00
2023-03-26T06:12:44.956Z,287.00
2023-03-26T06:13:44.968Z,271.00
2023-03-26T06:14:44.951Z,275.00
2023-03-26T06:15:44.981Z,293.00
2023-03-26T06:16:45.479Z,283.00
2023-03-26T06:17:45.004Z,300.00
2023-03-26T06:18:44.914Z,338.00
2023-03-26T06:19:44.934Z,356.00
2023-03-26T06:20:44.870Z,377.00
2023-03-26T06:21:44.864Z,399.00
2023-03-26T06:22:44.881Z,424.00
2023-03-26T06:23:44.811Z,442.00
2023-03-26T06:24:44.821Z,463.00
2023-03-26T06:25:44.835Z,463.00
2023-03-26T06:26:44.819Z,453.00
2023-03-26T06:27:44.781Z,464.00
2023-03-26T06:28:44.744Z,492.00
2023-03-26T06:29:44.856Z,523.00
2023-03-26T06:30:44.759Z,570.00
2023-03-26T06:31:44.809Z,619.00
2023-03-26T06:32:44.788Z,639.00
2023-03-26T06:33:44.722Z,639.00
2023-03-26T06:34:44.734Z,657.00
2023-03-26T06:35:44.879Z,687.00
2023-03-26T06:36:44.705Z,693.00
2023-03-26T06:37:44.718Z,682.00
2023-03-26T06:38:44.707Z,663.00
2023-03-26T06:39:44.773Z,652.00
2023-03-26T06:40:44.638Z,635.00
2023-03-26T06:41:44.663Z,622.00
2023-03-26T06:43:06.699Z,593.00
2023-03-26T06:43:44.626Z,562.00
2023-03-26T06:44:44.655Z,529.00
2023-03-26T06:45:44.626Z,506.00
2023-03-26T06:46:44.621Z,479.00
2023-03-26T06:47:44.636Z,468.00
2023-03-26T06:48:44.685Z,468.00
2023-03-26T06:49:45.435Z,470.00
2023-03-26T06:50:44.577Z,477.00
2023-03-26T06:51:44.544Z,483.00
2023-03-26T06:52:44.517Z,489.00
2023-03-26T06:53:44.542Z,494.00
2023-03-26T06:54:44.508Z,490.00
2023-03-26T06:55:44.582Z,478.00
2023-03-26T06:56:44.445Z,469.00
2023-03-26T06:57:44.502Z,466.00
2023-03-26T06:58:44.498Z,447.00
2023-03-26T06:59:44.445Z,429.00
2023-03-26T07:00:44.516Z,409.00
2023-03-26T07:01:46.441Z,404.00
2023-03-26T07:02:44.425Z,414.00
2023-03-26T07:03:44.479Z,421.00
2023-03-26T07:04:44.421Z,422.00
2023-03-26T07:05:44.425Z,417.00
2023-03-26T07:06:44.351Z,411.00
2023-03-26T07:07:46.809Z,411.00
2023-03-26T07:08:44.409Z,422.00
2023-03-26T07:09:44.375Z,428.00
2023-03-26T07:10:44.376Z,425.00
2023-03-26T07:11:44.347Z,423.00
2023-03-26T07:12:44.284Z,432.00
2023-03-26T07:13:44.277Z,439.00
2023-03-26T07:14:44.307Z,424.00
2023-03-26T07:15:44.364Z,390.00
2023-03-26T07:16:44.285Z,362.00
2023-03-26T07:17:44.278Z,339.00
2023-03-26T07:18:44.281Z,321.00
2023-03-26T07:19:44.240Z,321.00
2023-03-26T07:20:44.226Z,344.00
2023-03-26T07:21:44.244Z,382.00
2023-03-26T07:22:44.217Z,422.00
2023-03-26T07:23:44.233Z,468.00
2023-03-26T07:24:44.186Z,520.00
2023-03-26T07:25:44.220Z,562.00
2023-03-26T07:26:44.177Z,603.00
2023-03-26T07:27:44.222Z,643.00
2023-03-26T07:28:44.127Z,674.00
2023-03-26T07:29:44.171Z,701.00
2023-03-26T07:30:44.168Z,700.00
2023-03-26T07:31:44.194Z,679.00
2023-03-26T07:32:44.129Z,652.00
2023-03-26T07:33:44.138Z,620.00
2023-03-26T07:34:44.106Z,590.00
2023-03-26T07:35:44.158Z,562.00
2023-03-26T07:36:44.089Z,537.00
2023-03-26T07:37:44.139Z,526.00
2023-03-26T07:38:44.059Z,528.00
2023-03-26T07:39:44.043Z,528.00
2023-03-26T07:40:44.055Z,531.00
2023-03-26T07:41:44.060Z,531.00
2023-03-26T07:42:44.042Z,537.00
2023-03-26T07:43:44.014Z,544.00
2023-03-26T07:44:43.984Z,551.00
2023-03-26T07:45:44.075Z,557.00
2023-03-26T07:46:43.966Z,565.00
2023-03-26T07:47:43.946Z,574.00
2023-03-26T07:48:43.975Z,605.00
2023-03-26T07:49:43.955Z,645.00
2023-03-26T07:50:43.938Z,701.00
2023-03-26T07:51:43.902Z,752.00
2023-03-26T07:52:43.870Z,797.00
2023-03-26T07:53:43.871Z,849.00
2023-03-26T07:54:43.898Z,871.00
2023-03-26T07:55:43.870Z,881.00
2023-03-26T07:56:43.969Z,876.00
2023-03-26T07:57:43.849Z,871.00
2023-03-26T07:58:43.905Z,859.00
2023-03-26T07:59:43.861Z,855.00
2023-03-26T08:00:43.799Z,849.00
2023-03-26T08:01:43.790Z,844.00
2023-03-26T08:02:43.893Z,846.00
2023-03-26T08:03:43.867Z,849.00
2023-03-26T08:04:43.874Z,847.00
2023-03-26T08:05:43.721Z,846.00
2023-03-26T08:06:43.719Z,840.00
2023-03-26T08:07:43.718Z,849.00
2023-03-26T08:08:43.700Z,861.00
2023-03-26T08:09:43.681Z,882.00
2023-03-26T08:10:43.720Z,905.00
2023-03-26T08:11:43.657Z,934.00
2023-03-26T08:12:43.944Z,953.00
2023-03-26T08:13:43.654Z,967.00
2023-03-26T08:14:43.745Z,967.00
2023-03-26T08:15:43.718Z,951.00
2023-03-26T08:16:43.611Z,936.00
2023-03-26T08:17:43.697Z,917.00
2023-03-26T08:18:43.589Z,909.00
2023-03-26T08:19:43.561Z,895.00
2023-03-26T08:20:43.582Z,885.00
2023-03-26T08:21:43.543Z,878.00
2023-03-26T08:22:43.541Z,866.00
2023-03-26T08:23:50.392Z,845.00
2023-03-26T08:24:43.536Z,842.00
2023-03-26T08:25:43.532Z,847.00
2023-03-26T08:26:43.533Z,842.00
2023-03-26T08:27:43.483Z,833.00
2023-03-26T08:28:43.482Z,814.00
2023-03-26T08:29:43.474Z,804.00
2023-03-26T08:30:43.537Z,798.00
2023-03-26T08:31:43.475Z,805.00
2023-03-26T08:32:43.511Z,819.00
2023-03-26T08:33:43.438Z,838.00
2023-03-26T08:34:43.675Z,865.00
2023-03-26T08:35:43.470Z,884.00
2023-03-26T08:36:43.410Z,901.00
2023-03-26T08:37:43.384Z,928.00
2023-03-26T08:38:45.151Z,942.00
2023-03-26T08:39:43.375Z,956.00
2023-03-26T08:40:43.360Z,976.00
2023-03-26T08:41:43.378Z,996.00
2023-03-26T08:42:43.372Z,1002.00
2023-03-26T08:43:43.463Z,1016.00
2023-03-26T08:44:43.306Z,1047.00
2023-03-26T08:45:43.304Z,1076.00
2023-03-26T08:46:43.356Z,1107.00
2023-03-26T08:47:43.309Z,1142.00
2023-03-26T08:48:43.357Z,1161.00
2023-03-26T08:49:43.242Z,1182.00
2023-03-26T08:50:43.257Z,1205.00
2023-03-26T08:51:43.260Z,1221.00
2023-03-26T08:52:43.266Z,1243.00
2023-03-26T08:53:43.258Z,1254.00
2023-03-26T08:54:43.229Z,1282.00
2023-03-26T08:55:43.229Z,1314.00
2023-03-26T08:56:43.184Z,1369.00
2023-03-26T08:57:43.240Z,1417.00
2023-03-26T08:58:43.221Z,1482.00
2023-03-26T08:59:43.166Z,1514.00
2023-03-26T09:00:43.265Z,1544.00
2023-03-26T09:01:43.166Z,1600.00
2023-03-26T09:02:43.180Z,1653.00
2023-03-26T09:03:43.138Z,1679.00
2023-03-26T09:04:43.120Z,1707.00
2023-03-26T09:05:43.166Z,1742.00
2023-03-26T09:06:43.125Z,1805.00
2023-03-26T09:07:43.102Z,1855.00
2023-03-26T09:08:54.139Z,1900.00
2023-03-26T09:09:43.079Z,1960.00
2023-03-26T09:10:43.071Z,2004.00
2023-03-26T09:11:43.043Z,2049.00
2023-03-26T09:12:43.071Z,2092.00
2023-03-26T09:13:43.006Z,2138.00
2023-03-26T09:14:42.987Z,2167.00
2023-03-26T09:15:43.088Z,2208.00
2023-03-26T09:16:43.095Z,2224.00
2023-03-26T09:17:42.998Z,2270.00
2023-03-26T09:18:43.002Z,2317.00
2023-03-26T09:19:42.944Z,2349.00
2023-03-26T09:20:42.952Z,2378.00
2023-03-26T09:21:42.923Z,2399.00
2023-03-26T09:22:42.928Z,2429.00
2023-03-26T09:23:42.900Z,2447.00
2023-03-26T09:24:42.937Z,2473.00
2023-03-26T09:25:42.907Z,2507.00
2023-03-26T09:26:42.909Z,2456.00
2023-03-26T09:27:42.923Z,2356.00
2023-03-26T09:28:42.848Z,2272.00
2023-03-26T09:29:42.869Z,2216.00
2023-03-26T09:30:42.846Z,2236.00
2023-03-26T09:31:42.883Z,2216.00
2023-03-26T09:32:42.868Z,2237.00
2023-03-26T09:33:42.828Z,2188.00
2023-03-26T09:34:42.794Z,2158.00
2023-03-26T09:35:42.850Z,2091.00
2023-03-26T09:36:42.763Z,1991.00
2023-03-26T09:37:56.705Z,2022.00
2023-03-26T09:38:42.743Z,2105.00
2023-03-26T09:39:42.759Z,2094.00
2023-03-26T09:40:42.723Z,2178.00
2023-03-26T09:41:42.699Z,2171.00
2023-03-26T09:42:42.727Z,2036.00
2023-03-26T09:43:42.716Z,1972.00
2023-03-26T09:44:42.757Z,2067.00
2023-03-26T09:45:42.712Z,2105.00
2023-03-26T09:46:42.903Z,2135.00
2023-03-26T09:47:42.715Z,2025.00
2023-03-26T09:48:42.671Z,1761.00
2023-03-26T09:49:42.664Z,1732.00
2023-03-26T09:50:42.629Z,1822.00
2023-03-26T09:51:42.604Z,1765.00
2023-03-26T09:52:42.679Z,1757.00
2023-03-26T09:53:42.601Z,1810.00
2023-03-26T09:54:42.589Z,1858.00
2023-03-26T09:55:42.562Z,1816.00
2023-03-26T09:56:42.578Z,1791.00
2023-03-26T09:57:42.603Z,1988.00
2023-03-26T09:58:42.562Z,2125.00
2023-03-26T09:59:42.555Z,2164.00
2023-03-26T10:00:42.614Z,2043.00
2023-03-26T10:01:42.651Z,2047.00
2023-03-26T10:02:45.606Z,2067.00
2023-03-26T10:03:42.494Z,2051.00
2023-03-26T10:04:42.550Z,1892.00
2023-03-26T10:05:42.496Z,1891.00
2023-03-26T10:06:42.512Z,1904.00
2023-03-26T10:07:42.469Z,1905.00
2023-03-26T10:08:42.469Z,1962.00
2023-03-26T10:09:42.403Z,1962.00
2023-03-26T10:10:42.414Z,1981.00
2023-03-26T10:11:42.440Z,1953.00
2023-03-26T10:12:42.413Z,1891.00
2023-03-26T10:13:42.395Z,1808.00
2023-03-26T10:14:42.454Z,1852.00
2023-03-26T10:15:42.409Z,1974.00
2023-03-26T10:16:42.457Z,2036.00
2023-03-26T10:17:42.434Z,2062.00
2023-03-26T10:18:42.315Z,2096.00
2023-03-26T10:19:42.339Z,2128.00
2023-03-26T10:20:42.370Z,2151.00
2023-03-26T10:21:42.289Z,2189.00
2023-03-26T10:22:42.348Z,2205.00
2023-03-26T10:23:42.331Z,2126.00
2023-03-26T10:24:42.310Z,2181.00
2023-03-26T10:25:42.276Z,2264.00
2023-03-26T10:26:42.247Z,2243.00
2023-03-26T10:27:42.234Z,2283.00
2023-03-26T10:28:42.307Z,2338.00
2023-03-26T10:29:42.241Z,2366.00
2023-03-26T10:30:42.226Z,2395.00
2023-03-26T10:31:42.198Z,2412.00
2023-03-26T10:32:42.173Z,2425.00
2023-03-26T10:33:42.284Z,2462.00
2023-03-26T10:34:42.165Z,2519.00
2023-03-26T10:35:42.192Z,2463.00
2023-03-26T10:36:42.119Z,2513.00
2023-03-26T10:37:42.118Z,2554.00
2023-03-26T10:38:42.204Z,2571.00
2023-03-26T10:39:43.455Z,2624.00
2023-03-26T10:40:42.090Z,2662.00
2023-03-26T10:41:42.084Z,2584.00
2023-03-26T10:42:42.101Z,2573.00
2023-03-26T10:43:42.089Z,2518.00
2023-03-26T10:44:42.092Z,2484.00
2023-03-26T10:45:42.044Z,2614.00
2023-03-26T10:46:42.103Z,2703.00
2023-03-26T10:47:42.066Z,2699.00
2023-03-26T10:48:42.015Z,2668.00
2023-03-26T10:49:42.017Z,2652.00
2023-03-26T10:50:42.001Z,2610.00
2023-03-26T10:51:41.958Z,2614.00
2023-03-26T10:52:41.983Z,2647.00
2023-03-26T10:53:41.978Z,2623.00
2023-03-26T10:54:41.961Z,2619.00
2023-03-26T10:55:41.962Z,2629.00
2023-03-26T10:56:42.633Z,2619.00
2023-03-26T10:57:41.920Z,2629.00
2023-03-26T10:58:48.338Z,2627.00
2023-03-26T10:59:41.889Z,2634.00
2023-03-26T11:00:41.925Z,2628.00
2023-03-26T11:01:41.990Z,2630.00
2023-03-26T11:02:41.904Z,2646.00
2023-03-26T11:03:41.879Z,2648.00
2023-03-26T11:04:41.872Z,2661.00
2023-03-26T11:05:41.885Z,2646.00
2023-03-26T11:06:41.828Z,2658.00
2023-03-26T11:07:41.817Z,2665.00
2023-03-26T11:08:41.887Z,2658.00
2023-03-26T11:09:41.796Z,2677.00
2023-03-26T11:10:41.845Z,2685.00
2023-03-26T11:11:41.777Z,2708.00
2023-03-26T11:12:41.856Z,2731.00
2023-03-26T11:13:41.748Z,2753.00
2023-03-26T11:14:41.810Z,2777.00
2023-03-26T11:15:41.787Z,2800.00
2023-03-26T11:16:41.733Z,2798.00
2023-03-26T11:17:41.845Z,2826.00
2023-03-26T11:18:41.758Z,2843.00
2023-03-26T11:19:41.708Z,2873.00
2023-03-26T11:20:41.723Z,2899.00
2023-03-26T11:21:41.673Z,2926.00
2023-03-26T11:22:41.729Z,2948.00
2023-03-26T11:23:41.647Z,3003.00
2023-03-26T11:24:41.660Z,3068.00
2023-03-26T11:25:41.625Z,3150.00
2023-03-26T11:26:41.616Z,3157.00
2023-03-26T11:27:41.665Z,3208.00
2023-03-26T11:28:41.621Z,3282.00
2023-03-26T11:29:41.620Z,3326.00
2023-03-26T11:30:41.602Z,3358.00
2023-03-26T11:31:41.631Z,3378.00
2023-03-26T11:32:41.609Z,3409.00
2023-03-26T11:33:45.486Z,3452.00
2023-03-26T11:34:41.603Z,3441.00
2023-03-26T11:35:41.881Z,3473.00
2023-03-26T11:36:41.523Z,3497.00
2023-03-26T11:37:41.531Z,3467.00
2023-03-26T11:38:41.554Z,3353.00
2023-03-26T11:39:41.598Z,3253.00
2023-03-26T11:40:41.572Z,3227.00
2023-03-26T11:41:41.443Z,3177.00
2023-03-26T11:42:41.495Z,3181.00
2023-03-26T11:43:41.474Z,3138.00
2023-03-26T11:44:41.453Z,3088.00
2023-03-26T11:45:41.482Z,3214.00
2023-03-26T11:46:41.465Z,3274.00
2023-03-26T11:47:41.454Z,3400.00
2023-03-26T11:48:41.384Z,3521.00
2023-03-26T11:49:41.364Z,3476.00
2023-03-26T11:50:41.413Z,3506.00
2023-03-26T11:51:41.390Z,3564.00
2023-03-26T11:52:41.369Z,3587.00
2023-03-26T11:53:41.348Z,3551.00
2023-03-26T11:54:41.332Z,3431.00
2023-03-26T11:55:41.336Z,3367.00
2023-03-26T11:56:41.394Z,3386.00
2023-03-26T11:57:41.332Z,3392.00
2023-03-26T11:58:41.288Z,3410.00
2023-03-26T11:59:53.139Z,3425.00
2023-03-26T12:00:41.297Z,3455.00
2023-03-26T12:01:41.351Z,3385.00
2023-03-26T12:02:41.511Z,3302.00
2023-03-26T12:03:41.266Z,3239.00
2023-03-26T12:04:41.324Z,3051.00
2023-03-26T12:05:41.204Z,2860.00
2023-03-26T12:06:41.222Z,2750.00
2023-03-26T12:07:41.241Z,2956.00
2023-03-26T12:08:41.161Z,3209.00
2023-03-26T12:09:41.173Z,3292.00
2023-03-26T12:10:41.138Z,3237.00
2023-03-26T12:11:41.193Z,3150.00
2023-03-26T12:12:41.894Z,3103.00
2023-03-26T12:13:41.193Z,3103.00
2023-03-26T12:14:41.110Z,3111.00
2023-03-26T12:15:41.164Z,3115.00
2023-03-26T12:16:41.152Z,3134.00
2023-03-26T12:17:41.125Z,3166.00
2023-03-26T12:18:41.097Z,3149.00
2023-03-26T12:19:41.098Z,3141.00
2023-03-26T12:20:41.074Z,3093.00
2023-03-26T12:21:41.066Z,3084.00
2023-03-26T12:22:43.081Z,3058.00
2023-03-26T12:23:41.070Z,3030.00
2023-03-26T12:24:41.038Z,2987.00
2023-03-26T12:25:41.060Z,2966.00
2023-03-26T12:26:41.023Z,2948.00
2023-03-26T12:27:40.967Z,2918.00
2023-03-26T12:28:42.942Z,2927.00
2023-03-26T12:29:40.998Z,2944.00
2023-03-26T12:30:40.959Z,2951.00
2023-03-26T12:31:40.944Z,2977.00
2023-03-26T12:32:46.420Z,2981.00
2023-03-26T12:33:40.945Z,2998.00
2023-03-26T12:34:40.944Z,3007.00
2023-03-26T12:35:40.994Z,3020.00
2023-03-26T12:36:40.874Z,3021.00
2023-03-26T12:37:40.879Z,3043.00
2023-03-26T12:38:40.934Z,3053.00
2023-03-26T12:40:06.516Z,2992.00
2023-03-26T12:40:40.873Z,2982.00
2023-03-26T12:43:19.863Z,2838.00